sensor_id;sensor_type;location;lat;lon;timestamp;pressure;altitude;pressure_sealevel;temperature;humidity
25664;BME280;13522;50.018;20.014;2023-04-21T00:02:05;99000.72;;;9.27;100.00
25664;BME280;13522;50.018;20.014;2023-04-21T00:05:19;98998.06;;;9.27;100.00
25664;BME280;13522;50.018;20.014;2023-04-21T00:08:32;98995.69;;;9.24;100.00
25664;BME280;13522;50.018;20.014;2023-04-21T00:11:45;98998.91;;;9.28;100.00
25664;BME280;13522;50.018;20.014;2023-04-21T00:14:57;98996.84;;;9.31;100.00
25664;BME280;13522;50.018;20.014;2023-04-21T00:18:09;98996.73;;;9.33;100.00
25664;BME280;13522;50.018;20.014;2023-04-21T00:21:22;98991.53;;;9.31;100.00
25664;BME280;13522;50.018;20.014;2023-04-21T00:24:35;98988.17;;;9.29;100.00
25664;BME280;13522;50.018;20.014;2023-04-21T00:27:47;98985.42;;;9.31;100.00
25664;BME280;13522;50.018;20.014;2023-04-21T00:30:59;98983.59;;;9.31;100.00
25664;BME280;13522;50.018;20.014;2023-04-21T00:34:11;98990.39;;;9.24;100.00
25664;BME280;13522;50.018;20.014;2023-04-21T00:37:23;98986.69;;;9.16;100.00
25664;BME280;13522;50.018;20.014;2023-04-21T00:40:36;98987.03;;;9.22;100.00
25664;BME280;13522;50.018;20.014;2023-04-21T00:44:06;98983.15;;;9.26;100.00
25664;BME280;13522;50.018;20.014;2023-04-21T00:47:19;98985.09;;;9.24;100.00
25664;BME280;13522;50.018;20.014;2023-04-21T00:50:32;98981.45;;;9.25;100.00
25664;BME280;13522;50.018;20.014;2023-04-21T00:53:45;98979.78;;;9.24;100.00
25664;BME280;13522;50.018;20.014;2023-04-21T00:56:58;98981.73;;;9.22;100.00
25664;BME280;13522;50.018;20.014;2023-04-21T01:00:15;98980.03;;;9.21;100.00
25664;BME280;13522;50.018;20.014;2023-04-21T01:03:28;98976.95;;;9.16;100.00
25664;BME280;13522;50.018;20.014;2023-04-21T01:06:42;98976.09;;;9.16;100.00
25664;BME280;13522;50.018;20.014;2023-04-21T01:09:54;98977.79;;;9.17;100.00
25664;BME280;13522;50.018;20.014;2023-04-21T01:13:07;98975.00;;;9.18;100.00
25664;BME280;13522;50.018;20.014;2023-04-21T01:16:19;98975.14;;;9.17;100.00
25664;BME280;13522;50.018;20.014;2023-04-21T01:19:34;98975.25;;;9.15;100.00
25664;BME280;13522;50.018;20.014;2023-04-21T01:22:48;98972.59;;;9.15;100.00
25664;BME280;13522;50.018;20.014;2023-04-21T01:26:02;98971.64;;;9.16;100.00
25664;BME280;13522;50.018;20.014;2023-04-21T01:29:15;98973.58;;;9.14;100.00
25664;BME280;13522;50.018;20.014;2023-04-21T01:32:28;98973.58;;;9.14;100.00
25664;BME280;13522;50.018;20.014;2023-04-21T01:35:41;98976.47;;;9.11;100.00
25664;BME280;13522;50.018;20.014;2023-04-21T01:38:55;98972.40;;;9.07;100.00
25664;BME280;13522;50.018;20.014;2023-04-21T01:42:08;98974.53;;;9.13;100.00
25664;BME280;13522;50.018;20.014;2023-04-21T01:45:20;98974.30;;;9.16;100.00
25664;BME280;13522;50.018;20.014;2023-04-21T01:48:32;98975.89;;;9.08;100.00
25664;BME280;13522;50.018;20.014;2023-04-21T01:51:45;98967.03;;;8.98;100.00
25664;BME280;13522;50.018;20.014;2023-04-21T01:54:57;98974.61;;;9.02;100.00
25664;BME280;13522;50.018;20.014;2023-04-21T01:58:12;98967.38;;;9.04;100.00
25664;BME280;13522;50.018;20.014;2023-04-21T02:01:24;98969.03;;;9.05;100.00
25664;BME280;13522;50.018;20.014;2023-04-21T02:04:36;98969.31;;;9.02;100.00
25664;BME280;13522;50.018;20.014;2023-04-21T02:07:48;98973.31;;;8.97;100.00
25664;BME280;13522;50.018;20.014;2023-04-21T02:11:03;98980.92;;;8.90;100.00
25664;BME280;13522;50.018;20.014;2023-04-21T02:14:17;98976.64;;;8.78;100.00
25664;BME280;13522;50.018;20.014;2023-04-21T02:17:29;98988.59;;;8.72;100.00
25664;BME280;13522;50.018;20.014;2023-04-21T02:20:41;98988.95;;;8.68;100.00
25664;BME280;13522;50.018;20.014;2023-04-21T02:23:53;98998.33;;;8.72;100.00
25664;BME280;13522;50.018;20.014;2023-04-21T02:27:06;98992.66;;;8.77;100.00
25664;BME280;13522;50.018;20.014;2023-04-21T02:30:18;98992.53;;;8.78;100.00
25664;BME280;13522;50.018;20.014;2023-04-21T02:33:30;98987.02;;;8.70;100.00
25664;BME280;13522;50.018;20.014;2023-04-21T02:36:42;98986.07;;;8.71;100.00
25664;BME280;13522;50.018;20.014;2023-04-21T02:39:54;98983.88;;;8.76;100.00
25664;BME280;13522;50.018;20.014;2023-04-21T02:43:08;98978.92;;;8.83;100.00
25664;BME280;13522;50.018;20.014;2023-04-21T02:46:20;98982.14;;;8.86;100.00
25664;BME280;13522;50.018;20.014;2023-04-21T02:49:32;98982.86;;;8.88;100.00
25664;BME280;13522;50.018;20.014;2023-04-21T02:52:44;98983.57;;;8.90;100.00
25664;BME280;13522;50.018;20.014;2023-04-21T02:55:56;98981.64;;;8.92;100.00
25664;BME280;13522;50.018;20.014;2023-04-21T02:59:10;98984.28;;;8.92;100.00
25664;BME280;13522;50.018;20.014;2023-04-21T03:02:25;98981.20;;;8.87;100.00
25664;BME280;13522;50.018;20.014;2023-04-21T03:05:37;98984.22;;;8.83;100.00
25664;BME280;13522;50.018;20.014;2023-04-21T03:08:49;98984.86;;;8.75;100.00
25664;BME280;13522;50.018;20.014;2023-04-21T03:12:04;98982.44;;;8.72;100.00
25664;BME280;13522;50.018;20.014;2023-04-21T03:15:16;98974.05;;;8.67;100.00
25664;BME280;13522;50.018;20.014;2023-04-21T03:18:28;98979.84;;;8.61;100.00
25664;BME280;13522;50.018;20.014;2023-04-21T03:21:41;98983.00;;;8.55;100.00
25664;BME280;13522;50.018;20.014;2023-04-21T03:24:53;98985.70;;;8.33;100.00
25664;BME280;13522;50.018;20.014;2023-04-21T03:28:05;98993.86;;;8.19;100.00
25664;BME280;13522;50.018;20.014;2023-04-21T03:31:18;98989.81;;;8.04;100.00
25664;BME280;13522;50.018;20.014;2023-04-21T03:34:30;98990.66;;;8.04;100.00
25664;BME280;13522;50.018;20.014;2023-04-21T03:37:43;98987.52;;;7.99;100.00
25664;BME280;13522;50.018;20.014;2023-04-21T03:40:55;98989.70;;;7.94;100.00
25664;BME280;13522;50.018;20.014;2023-04-21T03:44:07;98995.22;;;7.91;100.00
25664;BME280;13522;50.018;20.014;2023-04-21T03:47:19;98986.19;;;7.82;100.00
25664;BME280;13522;50.018;20.014;2023-04-21T03:50:31;98988.38;;;7.77;100.00
25664;BME280;13522;50.018;20.014;2023-04-21T03:53:43;98995.10;;;7.81;100.00
25664;BME280;13522;50.018;20.014;2023-04-21T03:56:55;98996.06;;;7.92;100.00
25664;BME280;13522;50.018;20.014;2023-04-21T04:00:11;99006.14;;;7.86;100.00
25664;BME280;13522;50.018;20.014;2023-04-21T04:03:24;99010.25;;;7.68;100.00
25664;BME280;13522;50.018;20.014;2023-04-21T04:06:36;99018.66;;;7.62;100.00
25664;BME280;13522;50.018;20.014;2023-04-21T04:09:48;99014.91;;;7.65;100.00
25664;BME280;13522;50.018;20.014;2023-04-21T04:13:00;99017.46;;;7.66;100.00
25664;BME280;13522;50.018;20.014;2023-04-21T04:16:12;99012.17;;;7.66;100.00
25664;BME280;13522;50.018;20.014;2023-04-21T04:19:30;99013.84;;;7.67;100.00
25664;BME280;13522;50.018;20.014;2023-04-21T04:22:42;99012.64;;;7.71;100.00
25664;BME280;13522;50.018;20.014;2023-04-21T04:25:54;99020.45;;;7.73;100.00
25664;BME280;13522;50.018;20.014;2023-04-21T04:29:06;99024.66;;;7.75;100.00
25664;BME280;13522;50.018;20.014;2023-04-21T04:32:21;99030.92;;;7.85;100.00
25664;BME280;13522;50.018;20.014;2023-04-21T04:35:33;99029.83;;;7.99;100.00
25664;BME280;13522;50.018;20.014;2023-04-21T04:38:45;99036.09;;;8.09;100.00
25664;BME280;13522;50.018;20.014;2023-04-21T04:41:58;99042.45;;;8.07;100.00
25664;BME280;13522;50.018;20.014;2023-04-21T04:45:10;99043.55;;;8.04;100.00
25664;BME280;13522;50.018;20.014;2023-04-21T04:48:22;99045.94;;;8.07;100.00
25664;BME280;13522;50.018;20.014;2023-04-21T04:51:34;99044.61;;;8.13;100.00
25664;BME280;13522;50.018;20.014;2023-04-21T04:54:46;99044.26;;;8.17;100.00
25664;BME280;13522;50.018;20.014;2023-04-21T04:57:58;99043.33;;;8.29;100.00
25664;BME280;13522;50.018;20.014;2023-04-21T05:01:15;99046.43;;;8.45;100.00
25664;BME280;13522;50.018;20.014;2023-04-21T05:04:29;99046.98;;;8.60;100.00
25664;BME280;13522;50.018;20.014;2023-04-21T05:07:43;99043.21;;;8.73;100.00
25664;BME280;13522;50.018;20.014;2023-04-21T05:10:55;99043.77;;;8.88;100.00
25664;BME280;13522;50.018;20.014;2023-04-21T05:14:07;99052.41;;;9.01;100.00
25664;BME280;13522;50.018;20.014;2023-04-21T05:17:19;99052.56;;;9.20;100.00
25664;BME280;13522;50.018;20.014;2023-04-21T05:20:32;99050.31;;;9.36;100.00
25664;BME280;13522;50.018;20.014;2023-04-21T05:23:44;99043.91;;;9.59;100.00
25664;BME280;13522;50.018;20.014;2023-04-21T05:26:57;99045.70;;;9.80;100.00
25664;BME280;13522;50.018;20.014;2023-04-21T05:30:11;99044.38;;;9.95;100.00
25664;BME280;13522;50.018;20.014;2023-04-21T05:33:23;99038.92;;;10.17;100.00
25664;BME280;13522;50.018;20.014;2023-04-21T05:36:39;99034.37;;;10.38;100.00
25664;BME280;13522;50.018;20.014;2023-04-21T05:39:52;99034.70;;;10.54;100.00
25664;BME280;13522;50.018;20.014;2023-04-21T05:43:04;99036.86;;;10.79;100.00
25664;BME280;13522;50.018;20.014;2023-04-21T05:46:16;99039.81;;;11.05;100.00
25664;BME280;13522;50.018;20.014;2023-04-21T05:49:28;99037.70;;;11.27;98.30
25664;BME280;13522;50.018;20.014;2023-04-21T05:52:41;99034.06;;;11.38;96.82
25664;BME280;13522;50.018;20.014;2023-04-21T05:55:53;99031.68;;;11.45;96.47
25664;BME280;13522;50.018;20.014;2023-04-21T05:59:05;99033.06;;;11.68;96.34
25664;BME280;13522;50.018;20.014;2023-04-21T06:02:18;99023.08;;;11.79;92.62
25664;BME280;13522;50.018;20.014;2023-04-21T06:05:30;99029.02;;;12.10;90.46
25664;BME280;13522;50.018;20.014;2023-04-21T06:08:43;99018.27;;;12.29;89.17
25664;BME280;13522;50.018;20.014;2023-04-21T06:11:55;99019.02;;;12.66;87.02
25664;BME280;13522;50.018;20.014;2023-04-21T06:15:09;99019.47;;;13.07;83.69
25664;BME280;13522;50.018;20.014;2023-04-21T06:18:21;99015.02;;;13.76;81.31
25664;BME280;13522;50.018;20.014;2023-04-21T06:21:35;99009.20;;;14.40;78.33
25664;BME280;13522;50.018;20.014;2023-04-21T06:24:49;99003.81;;;14.98;75.59
25664;BME280;13522;50.018;20.014;2023-04-21T06:28:03;99004.37;;;15.57;74.93
25664;BME280;13522;50.018;20.014;2023-04-21T06:31:15;99005.86;;;15.28;72.08
25664;BME280;13522;50.018;20.014;2023-04-21T06:34:28;99001.55;;;15.43;72.13
25664;BME280;13522;50.018;20.014;2023-04-21T06:37:40;98991.12;;;15.80;69.94
25664;BME280;13522;50.018;20.014;2023-04-21T06:42:31;98978.36;;;16.37;66.71
25664;BME280;13522;50.018;20.014;2023-04-21T06:45:44;98983.41;;;16.71;66.99
25664;BME280;13522;50.018;20.014;2023-04-21T06:48:56;98978.28;;;16.84;65.74
25664;BME280;13522;50.018;20.014;2023-04-21T06:52:09;98980.02;;;16.77;64.36
25664;BME280;13522;50.018;20.014;2023-04-21T06:55:23;98979.20;;;16.99;64.68
25664;BME280;13522;50.018;20.014;2023-04-21T06:58:35;98982.80;;;17.88;63.42
25664;BME280;13522;50.018;20.014;2023-04-21T07:01:48;98970.25;;;18.39;60.85
25664;BME280;13522;50.018;20.014;2023-04-21T07:05:00;98969.20;;;18.69;60.32
25664;BME280;13522;50.018;20.014;2023-04-21T07:08:12;98969.41;;;18.39;60.85
25664;BME280;13522;50.018;20.014;2023-04-21T07:11:24;98966.01;;;18.01;59.33
25664;BME280;13522;50.018;20.014;2023-04-21T07:14:36;98964.88;;;18.25;56.84
25664;BME280;13522;50.018;20.014;2023-04-21T07:17:49;98954.13;;;18.25;56.12
25664;BME280;13522;50.018;20.014;2023-04-21T07:21:01;98965.27;;;18.72;57.72
25664;BME280;13522;50.018;20.014;2023-04-21T07:24:13;98963.75;;;18.84;58.86
25664;BME280;13522;50.018;20.014;2023-04-21T07:27:25;98964.80;;;19.04;57.08
25664;BME280;13522;50.018;20.014;2023-04-21T07:30:38;98965.64;;;18.83;57.67
25664;BME280;13522;50.018;20.014;2023-04-21T07:33:50;98953.89;;;19.54;55.87
25664;BME280;13522;50.018;20.014;2023-04-21T07:37:02;98950.49;;;19.73;54.20
25664;BME280;13522;50.018;20.014;2023-04-21T07:40:14;98951.30;;;20.36;53.54
25664;BME280;13522;50.018;20.014;2023-04-21T07:43:27;98941.98;;;20.45;53.64
25664;BME280;13522;50.018;20.014;2023-04-21T07:46:39;98938.34;;;20.65;52.69
25664;BME280;13522;50.018;20.014;2023-04-21T07:49:52;98938.45;;;20.38;52.08
25664;BME280;13522;50.018;20.014;2023-04-21T07:53:04;98947.81;;;20.08;53.02
25664;BME280;13522;50.018;20.014;2023-04-21T07:56:17;98943.38;;;19.94;52.47
25664;BME280;13522;50.018;20.014;2023-04-21T07:59:29;98944.16;;;19.87;54.47
25664;BME280;13522;50.018;20.014;2023-04-21T08:02:41;98941.69;;;20.20;54.02
25664;BME280;13522;50.018;20.014;2023-04-21T08:05:54;98942.12;;;20.24;54.68
25664;BME280;13522;50.018;20.014;2023-04-21T08:09:06;98932.17;;;20.31;52.16
25664;BME280;13522;50.018;20.014;2023-04-21T08:12:18;98936.55;;;19.98;51.20
25664;BME280;13522;50.018;20.014;2023-04-21T08:15:31;98933.73;;;20.12;51.10
25664;BME280;13522;50.018;20.014;2023-04-21T08:18:43;98943.55;;;20.20;53.74
25664;BME280;13522;50.018;20.014;2023-04-21T08:21:56;98931.80;;;20.40;51.35
25664;BME280;13522;50.018;20.014;2023-04-21T08:25:08;98920.25;;;20.59;49.13
25664;BME280;13522;50.018;20.014;2023-04-21T08:28:21;98913.64;;;20.75;47.45
25664;BME280;13522;50.018;20.014;2023-04-21T08:31:33;98919.13;;;21.01;48.43
25664;BME280;13522;50.018;20.014;2023-04-21T08:34:45;98916.63;;;21.52;47.23
25664;BME280;13522;50.018;20.014;2023-04-21T08:37:58;98917.27;;;21.34;47.42
25664;BME280;13522;50.018;20.014;2023-04-21T08:41:10;98913.92;;;21.45;45.77
25664;BME280;13522;50.018;20.014;2023-04-21T08:44:25;98912.85;;;21.01;47.60
25664;BME280;13522;50.018;20.014;2023-04-21T08:47:39;98912.08;;;21.33;46.35
25664;BME280;13522;50.018;20.014;2023-04-21T08:51:22;98908.70;;;21.77;48.09
25664;BME280;13522;50.018;20.014;2023-04-21T08:54:39;98907.90;;;21.56;46.58
25664;BME280;13522;50.018;20.014;2023-04-21T08:57:52;98901.42;;;21.90;46.15
25664;BME280;13522;50.018;20.014;2023-04-21T09:01:04;98904.47;;;22.07;48.03
25664;BME280;13522;50.018;20.014;2023-04-21T09:04:18;98898.30;;;21.74;46.55
25664;BME280;13522;50.018;20.014;2023-04-21T09:07:35;98897.02;;;22.02;46.59
25664;BME280;13522;50.018;20.014;2023-04-21T09:10:49;98888.78;;;22.73;44.85
25664;BME280;13522;50.018;20.014;2023-04-21T09:14:01;98891.35;;;22.55;45.11
25664;BME280;13522;50.018;20.014;2023-04-21T09:17:16;98884.23;;;22.67;43.14
25664;BME280;13522;50.018;20.014;2023-04-21T09:20:30;98884.91;;;22.56;44.90
25664;BME280;13522;50.018;20.014;2023-04-21T09:23:44;98877.45;;;22.44;42.82
25664;BME280;13522;50.018;20.014;2023-04-21T09:26:57;98875.72;;;22.63;43.02
25664;BME280;13522;50.018;20.014;2023-04-21T09:30:12;98874.36;;;22.41;40.80
25664;BME280;13522;50.018;20.014;2023-04-21T09:33:27;98873.69;;;23.14;42.72
25664;BME280;13522;50.018;20.014;2023-04-21T09:36:46;98858.58;;;23.50;39.81
25664;BME280;13522;50.018;20.014;2023-04-21T09:39:59;98867.38;;;23.20;41.71
25664;BME280;13522;50.018;20.014;2023-04-21T09:43:11;98860.89;;;23.21;37.94
25664;BME280;13522;50.018;20.014;2023-04-21T09:46:24;98853.50;;;23.10;36.55
25664;BME280;13522;50.018;20.014;2023-04-21T09:49:36;98846.72;;;23.69;37.21
25664;BME280;13522;50.018;20.014;2023-04-21T09:52:53;98838.48;;;23.39;35.61
25664;BME280;13522;50.018;20.014;2023-04-21T09:56:10;98848.00;;;23.84;39.35
25664;BME280;13522;50.018;20.014;2023-04-21T09:59:25;98833.45;;;24.15;34.04
25664;BME280;13522;50.018;20.014;2023-04-21T10:02:46;98826.02;;;23.32;32.28
25664;BME280;13522;50.018;20.014;2023-04-21T10:05:59;98828.09;;;22.80;33.15
25664;BME280;13522;50.018;20.014;2023-04-21T10:09:13;98828.44;;;23.40;33.89
25664;BME280;13522;50.018;20.014;2023-04-21T10:12:27;98820.34;;;23.76;32.32
25664;BME280;13522;50.018;20.014;2023-04-21T10:15:40;98816.28;;;23.67;32.70
25664;BME280;13522;50.018;20.014;2023-04-21T10:18:52;98826.25;;;22.43;34.43
25664;BME280;13522;50.018;20.014;2023-04-21T10:22:06;98824.70;;;22.60;33.93
25664;BME280;13522;50.018;20.014;2023-04-21T10:25:19;98831.34;;;22.64;35.16
25664;BME280;13522;50.018;20.014;2023-04-21T10:28:42;98823.91;;;23.34;34.35
25664;BME280;13522;50.018;20.014;2023-04-21T10:31:55;98820.41;;;23.69;35.02
25664;BME280;13522;50.018;20.014;2023-04-21T10:35:11;98816.70;;;23.46;32.61
25664;BME280;13522;50.018;20.014;2023-04-21T10:41:40;98809.78;;;23.50;33.69
25664;BME280;13522;50.018;20.014;2023-04-21T10:45:05;98809.48;;;23.76;33.59
25664;BME280;13522;50.018;20.014;2023-04-21T10:48:21;98814.83;;;23.46;34.11
25664;BME280;13522;50.018;20.014;2023-04-21T10:51:34;98814.14;;;23.33;34.58
25664;BME280;13522;50.018;20.014;2023-04-21T10:55:21;98814.78;;;22.79;35.36
25664;BME280;13522;50.018;20.014;2023-04-21T10:58:39;98812.55;;;22.00;34.20
25664;BME280;13522;50.018;20.014;2023-04-21T11:01:52;98824.33;;;21.55;35.68
25664;BME280;13522;50.018;20.014;2023-04-21T11:05:06;98823.27;;;22.20;36.07
25664;BME280;13522;50.018;20.014;2023-04-21T11:08:20;98817.02;;;22.19;35.01
25664;BME280;13522;50.018;20.014;2023-04-21T11:11:32;98810.59;;;22.52;34.61
25664;BME280;13522;50.018;20.014;2023-04-21T11:14:46;98800.47;;;22.96;32.97
25664;BME280;13522;50.018;20.014;2023-04-21T11:17:58;98795.22;;;22.77;32.68
25664;BME280;13522;50.018;20.014;2023-04-21T11:21:13;98806.91;;;22.39;35.42
25664;BME280;13522;50.018;20.014;2023-04-21T11:24:27;98814.14;;;22.14;35.18
25664;BME280;13522;50.018;20.014;2023-04-21T11:27:40;98816.01;;;21.43;36.78
25664;BME280;13522;50.018;20.014;2023-04-21T11:30:52;98819.80;;;20.84;36.49
25664;BME280;13522;50.018;20.014;2023-04-21T11:34:05;98822.05;;;20.54;37.82
25664;BME280;13522;50.018;20.014;2023-04-21T11:37:24;98822.20;;;20.26;39.16
25664;BME280;13522;50.018;20.014;2023-04-21T11:40:47;98812.33;;;20.86;39.98
25664;BME280;13522;50.018;20.014;2023-04-21T11:44:00;98811.52;;;21.11;37.56
25664;BME280;13522;50.018;20.014;2023-04-21T11:47:17;98810.09;;;21.86;39.19
25664;BME280;13522;50.018;20.014;2023-04-21T11:50:34;98799.90;;;21.88;37.88
25664;BME280;13522;50.018;20.014;2023-04-21T11:53:49;98802.57;;;21.17;38.75
25664;BME280;13522;50.018;20.014;2023-04-21T11:57:02;98805.86;;;20.80;36.36
25664;BME280;13522;50.018;20.014;2023-04-21T12:00:16;98807.72;;;20.53;39.15
25664;BME280;13522;50.018;20.014;2023-04-21T12:03:29;98803.50;;;20.25;37.80
25664;BME280;13522;50.018;20.014;2023-04-21T12:06:44;98802.31;;;20.47;38.91
25664;BME280;13522;50.018;20.014;2023-04-21T12:10:00;98799.42;;;20.74;38.49
25664;BME280;13522;50.018;20.014;2023-04-21T12:13:22;98785.30;;;20.92;37.43
25664;BME280;13522;50.018;20.014;2023-04-21T12:16:37;98779.91;;;21.18;38.32
25664;BME280;13522;50.018;20.014;2023-04-21T12:19:49;98786.49;;;21.48;37.10
25664;BME280;13522;50.018;20.014;2023-04-21T12:23:01;98766.83;;;21.86;36.44
25664;BME280;13522;50.018;20.014;2023-04-21T12:26:13;98768.53;;;21.67;36.24
25664;BME280;13522;50.018;20.014;2023-04-21T12:29:25;98754.90;;;21.49;34.99
25664;BME280;13522;50.018;20.014;2023-04-21T12:32:40;98768.92;;;21.84;38.42
25664;BME280;13522;50.018;20.014;2023-04-21T12:35:52;98754.45;;;22.03;38.24
25664;BME280;13522;50.018;20.014;2023-04-21T12:39:05;98745.56;;;21.96;34.69
25664;BME280;13522;50.018;20.014;2023-04-21T12:42:18;98744.34;;;22.23;34.72
25664;BME280;13522;50.018;20.014;2023-04-21T12:45:30;98750.47;;;22.12;34.33
25664;BME280;13522;50.018;20.014;2023-04-21T12:48:43;98744.86;;;21.63;35.67
25664;BME280;13522;50.018;20.014;2023-04-21T12:51:57;98742.55;;;21.66;35.51
25664;BME280;13522;50.018;20.014;2023-04-21T12:55:11;98745.02;;;20.91;34.82
25664;BME280;13522;50.018;20.014;2023-04-21T12:58:23;98754.78;;;20.39;36.66
25664;BME280;13522;50.018;20.014;2023-04-21T13:01:35;98749.38;;;20.72;36.19
25664;BME280;13522;50.018;20.014;2023-04-21T13:04:49;98742.31;;;21.10;34.76
25664;BME280;13522;50.018;20.014;2023-04-21T13:08:01;98734.77;;;21.38;33.05
25664;BME280;13522;50.018;20.014;2023-04-21T13:11:13;98729.02;;;21.73;34.32
25664;BME280;13522;50.018;20.014;2023-04-21T13:14:26;98735.28;;;21.67;35.54
25664;BME280;13522;50.018;20.014;2023-04-21T13:17:38;98721.09;;;21.71;34.16
25664;BME280;13522;50.018;20.014;2023-04-21T13:20:51;98731.00;;;21.39;37.79
25664;BME280;13522;50.018;20.014;2023-04-21T13:24:04;98730.48;;;20.92;36.20
25664;BME280;13522;50.018;20.014;2023-04-21T13:27:19;98730.27;;;21.06;36.14
25664;BME280;13522;50.018;20.014;2023-04-21T13:30:31;98713.05;;;20.81;34.52
25664;BME280;13522;50.018;20.014;2023-04-21T13:33:44;98715.75;;;20.88;34.41
25664;BME280;13522;50.018;20.014;2023-04-21T13:36:58;98716.76;;;21.13;36.39
25664;BME280;13522;50.018;20.014;2023-04-21T13:40:12;98707.63;;;21.07;35.05
25664;BME280;13522;50.018;20.014;2023-04-21T13:43:24;98706.73;;;21.26;32.80
25664;BME280;13522;50.018;20.014;2023-04-21T13:46:36;98706.59;;;20.82;33.52
25664;BME280;13522;50.018;20.014;2023-04-21T13:49:49;98706.59;;;20.82;33.16
25664;BME280;13522;50.018;20.014;2023-04-21T13:53:01;98705.13;;;20.86;33.85
25664;BME280;13522;50.018;20.014;2023-04-21T13:56:14;98707.64;;;20.81;33.97
25664;BME280;13522;50.018;20.014;2023-04-21T13:59:26;98702.65;;;20.78;34.80
25664;BME280;13522;50.018;20.014;2023-04-21T14:02:39;98695.60;;;20.64;33.00
25664;BME280;13522;50.018;20.014;2023-04-21T14:05:52;98688.13;;;20.66;34.45
25664;BME280;13522;50.018;20.014;2023-04-21T14:09:04;98688.97;;;20.80;35.10
25664;BME280;13522;50.018;20.014;2023-04-21T14:12:17;98689.38;;;20.70;32.53
25664;BME280;13522;50.018;20.014;2023-04-21T14:15:31;98688.13;;;20.72;34.61
25664;BME280;13522;50.018;20.014;2023-04-21T14:18:43;98677.95;;;20.88;32.96
25664;BME280;13522;50.018;20.014;2023-04-21T14:21:56;98679.00;;;20.67;31.81
25664;BME280;13522;50.018;20.014;2023-04-21T14:25:09;98681.92;;;20.59;33.54
25664;BME280;13522;50.018;20.014;2023-04-21T14:28:21;98677.79;;;20.50;33.16
25664;BME280;13522;50.018;20.014;2023-04-21T14:31:33;98690.03;;;20.39;35.14
25664;BME280;13522;50.018;20.014;2023-04-21T14:34:45;98678.78;;;20.10;33.12
25664;BME280;13522;50.018;20.014;2023-04-21T14:37:59;98664.91;;;20.19;33.24
25664;BME280;13522;50.018;20.014;2023-04-21T14:41:11;98678.20;;;20.34;33.19
25664;BME280;13522;50.018;20.014;2023-04-21T14:44:23;98670.67;;;20.03;32.91
25664;BME280;13522;50.018;20.014;2023-04-21T14:47:35;98673.16;;;20.05;34.70
25664;BME280;13522;50.018;20.014;2023-04-21T14:50:48;98674.83;;;19.93;34.02
25664;BME280;13522;50.018;20.014;2023-04-21T14:54:00;98664.42;;;19.76;33.01
25664;BME280;13522;50.018;20.014;2023-04-21T14:57:12;98668.51;;;19.53;32.90
25664;BME280;13522;50.018;20.014;2023-04-21T15:00:27;98669.94;;;19.55;34.42
25664;BME280;13522;50.018;20.014;2023-04-21T15:03:39;98669.13;;;19.55;33.28
25664;BME280;13522;50.018;20.014;2023-04-21T15:06:52;98665.98;;;19.51;35.11
25664;BME280;13522;50.018;20.014;2023-04-21T15:10:08;98654.77;;;19.41;35.19
25664;BME280;13522;50.018;20.014;2023-04-21T15:13:22;98664.94;;;19.46;37.52
25664;BME280;13522;50.018;20.014;2023-04-21T15:16:34;98656.44;;;19.42;36.36
25664;BME280;13522;50.018;20.014;2023-04-21T15:19:46;98657.81;;;19.32;36.31
25664;BME280;13522;50.018;20.014;2023-04-21T15:22:58;98660.08;;;19.28;38.07
25664;BME280;13522;50.018;20.014;2023-04-21T15:26:11;98650.36;;;19.27;34.06
25664;BME280;13522;50.018;20.014;2023-04-21T15:29:23;98653.68;;;19.29;34.59
25664;BME280;13522;50.018;20.014;2023-04-21T15:32:35;98657.98;;;19.17;38.08
25664;BME280;13522;50.018;20.014;2023-04-21T15:35:47;98653.39;;;19.11;35.85
25664;BME280;13522;50.018;20.014;2023-04-21T15:38:59;98647.12;;;18.97;36.71
25664;BME280;13522;50.018;20.014;2023-04-21T15:42:12;98654.52;;;18.89;38.56
25664;BME280;13522;50.018;20.014;2023-04-21T15:45:24;98655.73;;;18.86;37.16
25664;BME280;13522;50.018;20.014;2023-04-21T15:48:36;98653.25;;;18.85;38.43
25664;BME280;13522;50.018;20.014;2023-04-21T15:51:49;98649.83;;;18.70;38.26
25664;BME280;13522;50.018;20.014;2023-04-21T15:55:02;98641.73;;;18.63;36.34
25664;BME280;13522;50.018;20.014;2023-04-21T15:58:15;98645.64;;;18.61;39.29
25664;BME280;13522;50.018;20.014;2023-04-21T16:01:27;98651.23;;;18.38;39.69
25664;BME280;13522;50.018;20.014;2023-04-21T16:04:39;98643.77;;;18.34;41.19
25664;BME280;13522;50.018;20.014;2023-04-21T16:07:52;98639.17;;;18.28;38.06
25664;BME280;13522;50.018;20.014;2023-04-21T16:11:04;98648.25;;;18.27;39.06
25664;BME280;13522;50.018;20.014;2023-04-21T16:14:18;98643.66;;;18.20;41.31
25664;BME280;13522;50.018;20.014;2023-04-21T16:17:31;98639.19;;;18.06;37.24
25664;BME280;13522;50.018;20.014;2023-04-21T16:20:43;98637.55;;;18.05;38.38
25664;BME280;13522;50.018;20.014;2023-04-21T16:23:55;98635.63;;;17.99;39.34
25664;BME280;13522;50.018;20.014;2023-04-21T16:27:10;98639.09;;;17.93;39.91
25664;BME280;13522;50.018;20.014;2023-04-21T16:30:22;98644.98;;;17.82;40.76
25664;BME280;13522;50.018;20.014;2023-04-21T16:33:34;98642.66;;;17.79;40.51
25664;BME280;13522;50.018;20.014;2023-04-21T16:36:47;98649.77;;;17.66;39.98
25664;BME280;13522;50.018;20.014;2023-04-21T16:39:59;98652.13;;;17.54;43.24
25664;BME280;13522;50.018;20.014;2023-04-21T16:43:12;98653.41;;;17.44;40.39
25664;BME280;13522;50.018;20.014;2023-04-21T16:46:25;98647.34;;;17.35;40.79
25664;BME280;13522;50.018;20.014;2023-04-21T16:49:37;98643.63;;;17.36;38.67
25664;BME280;13522;50.018;20.014;2023-04-21T16:52:49;98649.00;;;17.36;40.04
25664;BME280;13522;50.018;20.014;2023-04-21T16:56:01;98637.36;;;17.29;39.55